createdAt,value
2022-09-17T00:01:40.439Z,99.90
2022-09-17T00:04:08.863Z,99.90
2022-09-17T00:06:39.407Z,99.90
2022-09-17T00:09:08.817Z,99.90
2022-09-17T00:11:39.518Z,99.90
2022-09-17T00:14:09.496Z,99.90
2022-09-17T00:16:40.347Z,99.90
2022-09-17T00:19:13.908Z,99.90
2022-09-17T00:21:44.361Z,99.90
2022-09-17T00:24:14.140Z,99.90
2022-09-17T00:26:43.188Z,99.90
2022-09-17T00:29:12.158Z,99.90
2022-09-17T00:31:40.658Z,99.90
2022-09-17T00:34:09.336Z,99.90
2022-09-17T00:36:38.930Z,99.90
2022-09-17T00:39:11.088Z,99.90
2022-09-17T00:41:40.419Z,99.90
2022-09-17T00:44:44.739Z,99.90
2022-09-17T00:47:18.990Z,99.90
2022-09-17T00:49:48.725Z,99.90
2022-09-17T00:52:20.414Z,99.90
2022-09-17T00:54:56.074Z,99.90
2022-09-17T00:57:24.679Z,99.90
2022-09-17T00:59:53.454Z,99.90
2022-09-17T01:02:22.428Z,99.90
2022-09-17T01:04:51.464Z,99.90
2022-09-17T01:07:40.330Z,99.90
2022-09-17T01:10:24.226Z,99.90
2022-09-17T01:13:04.784Z,99.90
2022-09-17T01:15:41.861Z,99.90
2022-09-17T01:18:33.504Z,99.90
2022-09-17T01:21:30.535Z,99.90
2022-09-17T01:24:30.835Z,99.90
2022-09-17T01:27:32.221Z,99.90
2022-09-17T01:30:28.248Z,99.90
2022-09-17T01:33:03.253Z,99.90
2022-09-17T01:35:38.295Z,99.90
2022-09-17T01:38:12.165Z,99.90
2022-09-17T01:40:46.797Z,99.90
2022-09-17T01:43:23.233Z,99.90
2022-09-17T01:45:53.643Z,99.90
2022-09-17T01:48:28.362Z,99.90
2022-09-17T01:51:01.300Z,99.90
2022-09-17T01:53:36.818Z,99.90
2022-09-17T01:56:07.452Z,99.90
2022-09-17T01:58:41.505Z,99.90
2022-09-17T02:01:12.875Z,99.90
2022-09-17T02:03:47.399Z,99.90
2022-09-17T02:06:18.950Z,99.90
2022-09-17T02:08:49.815Z,99.90
2022-09-17T02:11:18.296Z,99.90
2022-09-17T02:13:51.621Z,99.90
2022-09-17T02:16:25.190Z,99.90
2022-09-17T02:18:59.693Z,99.90
2022-09-17T02:21:34.442Z,99.90
2022-09-17T02:24:09.607Z,99.90
2022-09-17T02:26:44.741Z,99.90
2022-09-17T02:29:21.019Z,99.90
2022-09-17T02:31:49.670Z,99.90
2022-09-17T02:34:20.360Z,99.90
2022-09-17T02:36:48.722Z,99.90
2022-09-17T02:39:17.680Z,99.90
2022-09-17T02:41:53.298Z,99.90
2022-09-17T02:44:31.013Z,99.90
2022-09-17T02:47:15.973Z,99.90
2022-09-17T02:50:00.509Z,99.90
2022-09-17T02:52:41.074Z,99.90
2022-09-17T02:55:18.621Z,99.90
2022-09-17T02:57:53.586Z,99.90
2022-09-17T03:00:24.331Z,99.90
2022-09-17T03:02:57.695Z,99.90
2022-09-17T03:05:29.104Z,99.90
2022-09-17T03:07:57.683Z,99.90
2022-09-17T03:10:28.388Z,99.90
2022-09-17T03:12:56.844Z,99.90
2022-09-17T03:15:25.225Z,99.90
2022-09-17T03:17:53.746Z,99.90
2022-09-17T03:20:22.192Z,99.90
2022-09-17T03:22:53.598Z,99.90
2022-09-17T03:25:22.036Z,99.90
2022-09-17T03:27:50.294Z,99.90
2022-09-17T03:30:18.913Z,99.90
2022-09-17T03:32:47.756Z,99.90
2022-09-17T03:35:16.163Z,99.90
2022-09-17T03:37:44.519Z,99.90
2022-09-17T03:40:14.376Z,99.90
2022-09-17T03:42:42.742Z,99.90
2022-09-17T03:45:11.696Z,99.90
2022-09-17T03:47:39.996Z,99.90
2022-09-17T03:50:09.608Z,99.90
2022-09-17T03:52:37.950Z,99.90
2022-09-17T03:55:07.805Z,99.90
2022-09-17T03:57:37.563Z,99.90
2022-09-17T04:00:08.688Z,99.90
2022-09-17T04:02:37.160Z,99.90
2022-09-17T04:05:06.599Z,99.90
2022-09-17T04:07:34.886Z,99.90
2022-09-17T04:10:05.113Z,99.90
2022-09-17T04:12:33.714Z,99.90
2022-09-17T04:15:03.693Z,99.90
2022-09-17T04:17:32.402Z,99.90
2022-09-17T04:20:00.973Z,99.90
2022-09-17T04:22:29.537Z,99.90
2022-09-17T04:24:58.139Z,99.90
2022-09-17T04:27:26.829Z,99.90
2022-09-17T04:29:55.373Z,99.90
2022-09-17T04:32:25.502Z,99.90
2022-09-17T04:34:54.111Z,99.90
2022-09-17T04:37:23.113Z,99.90
2022-09-17T04:39:51.846Z,99.90
2022-09-17T04:42:20.196Z,99.90
2022-09-17T04:44:48.468Z,99.90
2022-09-17T04:47:16.918Z,99.90
2022-09-17T04:49:46.872Z,99.90
2022-09-17T04:52:15.410Z,99.90
2022-09-17T04:54:43.679Z,99.90
2022-09-17T04:57:12.078Z,99.90
2022-09-17T04:59:40.531Z,99.90
2022-09-17T05:02:08.955Z,99.90
2022-09-17T05:04:37.332Z,99.90
2022-09-17T05:07:09.884Z,99.90
2022-09-17T05:09:40.391Z,99.90
2022-09-17T05:12:09.448Z,99.90
2022-09-17T05:14:37.825Z,99.90
2022-09-17T05:17:06.244Z,99.90
2022-09-17T05:19:34.538Z,99.90
2022-09-17T05:22:03.054Z,99.90
2022-09-17T05:24:33.855Z,99.90
2022-09-17T05:27:02.213Z,99.90
2022-09-17T05:29:30.730Z,99.90
2022-09-17T05:31:59.218Z,99.90
2022-09-17T05:34:27.560Z,99.90
2022-09-17T05:36:55.896Z,99.90
2022-09-17T05:39:25.644Z,99.90
2022-09-17T05:41:55.977Z,99.90
2022-09-17T05:44:26.044Z,99.90
2022-09-17T05:46:55.410Z,99.90
2022-09-17T05:49:23.937Z,99.90
2022-09-17T05:51:52.773Z,99.90
2022-09-17T05:54:21.777Z,99.90
2022-09-17T05:56:50.296Z,99.90
2022-09-17T05:59:20.371Z,99.90
2022-09-17T06:01:49.919Z,99.90
2022-09-17T06:04:19.759Z,99.90
2022-09-17T06:06:48.338Z,99.90
2022-09-17T06:09:17.083Z,99.90
2022-09-17T06:11:45.776Z,99.90
2022-09-17T06:14:14.537Z,99.90
2022-09-17T06:16:44.838Z,99.90
2022-09-17T06:19:13.429Z,99.90
2022-09-17T06:21:41.789Z,99.90
2022-09-17T06:24:11.619Z,99.90
2022-09-17T06:26:40.015Z,99.90
2022-09-17T06:29:08.374Z,99.90
2022-09-17T06:31:36.750Z,99.90
2022-09-17T06:34:06.797Z,99.90
2022-09-17T06:36:35.074Z,99.90
2022-09-17T06:39:03.460Z,99.90
2022-09-17T06:41:31.831Z,99.90
2022-09-17T06:44:01.534Z,99.90
2022-09-17T06:46:29.819Z,99.90
2022-09-17T06:48:58.227Z,99.90
2022-09-17T06:51:28.254Z,99.90
2022-09-17T06:53:56.631Z,99.90
2022-09-17T06:56:25.779Z,99.90
2022-09-17T06:58:55.288Z,99.90
2022-09-17T07:01:23.717Z,99.90
2022-09-17T07:03:52.463Z,99.90
2022-09-17T07:06:20.845Z,99.90
2022-09-17T07:08:50.863Z,99.90
2022-09-17T07:11:19.363Z,99.90
2022-09-17T07:13:47.733Z,99.90
2022-09-17T07:16:16.116Z,99.90
2022-09-17T07:18:44.639Z,99.90
2022-09-17T07:21:13.009Z,99.90
2022-09-17T07:23:41.310Z,99.90
2022-09-17T07:26:15.637Z,99.90
2022-09-17T07:28:44.958Z,99.90
2022-09-17T07:31:16.639Z,99.90
2022-09-17T07:33:46.075Z,99.90
2022-09-17T07:36:18.014Z,99.90
2022-09-17T07:38:47.273Z,99.90
2022-09-17T07:41:18.576Z,99.90
2022-09-17T07:43:47.317Z,99.90
2022-09-17T07:46:17.377Z,99.90
2022-09-17T07:48:46.497Z,99.90
2022-09-17T07:51:17.860Z,99.90
2022-09-17T07:53:46.806Z,99.90
2022-09-17T07:56:17.001Z,99.90
2022-09-17T07:58:45.446Z,99.90
2022-09-17T08:01:15.474Z,99.90
2022-09-17T08:03:45.025Z,99.90
2022-09-17T08:06:15.590Z,99.90
2022-09-17T08:08:44.261Z,99.50
2022-09-17T08:11:14.455Z,99.50
2022-09-17T08:13:45.244Z,98.90
2022-09-17T08:16:14.635Z,98.40
2022-09-17T08:18:44.126Z,97.80
2022-09-17T08:21:13.888Z,97.30
2022-09-17T08:23:43.520Z,96.70
2022-09-17T08:26:15.791Z,95.90
2022-09-17T08:28:49.404Z,94.90
2022-09-17T08:31:19.310Z,94.70
2022-09-17T08:33:48.604Z,94.90
2022-09-17T08:36:18.849Z,95.20
2022-09-17T08:38:48.613Z,94.90
2022-09-17T08:41:24.678Z,94.40
2022-09-17T08:44:06.561Z,94.30
2022-09-17T08:46:39.163Z,93.70
2022-09-17T08:49:17.695Z,93.50
2022-09-17T08:51:58.642Z,93.00
2022-09-17T08:54:35.112Z,92.50
2022-09-17T08:57:18.513Z,92.80
2022-09-17T08:59:54.963Z,92.70
2022-09-17T09:02:39.358Z,93.00
2022-09-17T09:05:15.626Z,93.30
2022-09-17T09:07:48.628Z,93.50
2022-09-17T09:10:22.491Z,93.80
2022-09-17T09:12:52.887Z,93.30
2022-09-17T09:15:38.335Z,93.30
2022-09-17T09:18:18.129Z,92.80
2022-09-17T09:29:06.038Z,92.20
2022-09-17T09:31:54.918Z,91.10
2022-09-17T09:34:24.184Z,90.50
2022-09-17T09:36:53.440Z,90.40
2022-09-17T09:39:25.459Z,90.60
2022-09-17T09:42:00.129Z,90.20
2022-09-17T09:44:29.928Z,90.00
2022-09-17T09:47:31.100Z,89.70
2022-09-17T09:50:34.531Z,90.00
2022-09-17T09:53:22.125Z,90.00
2022-09-17T09:56:03.320Z,88.00
2022-09-17T09:58:36.299Z,89.20
2022-09-17T10:01:15.074Z,89.30
2022-09-17T10:03:46.305Z,88.20
2022-09-17T10:06:16.172Z,87.60
2022-09-17T10:09:12.040Z,88.30
2022-09-17T10:11:40.904Z,87.70
2022-09-17T10:14:17.553Z,87.00
2022-09-17T10:16:47.519Z,87.20
2022-09-17T10:19:25.134Z,87.10
2022-09-17T10:22:33.429Z,87.80
2022-09-17T10:25:03.686Z,89.90
2022-09-17T10:27:32.793Z,90.40
2022-09-17T10:30:15.365Z,89.80
2022-09-17T10:39:45.200Z,88.50
2022-09-17T10:42:16.521Z,88.10
2022-09-17T10:44:53.135Z,87.50
2022-09-17T10:47:26.550Z,87.80
2022-09-17T10:50:00.193Z,87.80
2022-09-17T10:52:32.457Z,89.60
2022-09-17T10:55:27.902Z,90.30
2022-09-17T10:58:06.029Z,90.80
2022-09-17T11:00:46.741Z,91.10
2022-09-17T11:03:36.422Z,91.50
2022-09-17T11:06:52.994Z,91.60
2022-09-17T11:09:33.950Z,91.90
2022-09-17T11:12:22.417Z,91.10
2022-09-17T11:14:55.685Z,91.20
2022-09-17T11:17:58.609Z,90.90
2022-09-17T11:20:40.443Z,90.90
2022-09-17T11:23:25.820Z,90.30
2022-09-17T11:26:00.915Z,90.40
2022-09-17T11:28:48.582Z,90.50
2022-09-17T11:31:28.123Z,90.40
2022-09-17T11:34:22.537Z,90.20
2022-09-17T11:36:58.828Z,90.00
2022-09-17T11:39:44.019Z,89.50
2022-09-17T11:42:23.065Z,87.70
2022-09-17T11:44:55.961Z,86.60
2022-09-17T11:47:29.837Z,85.50
2022-09-17T11:50:02.334Z,85.30
2022-09-17T11:52:36.618Z,83.80
2022-09-17T11:55:21.800Z,85.20
2022-09-17T11:57:54.376Z,86.10
2022-09-17T12:00:24.180Z,85.40
2022-09-17T12:02:57.543Z,78.70
2022-09-17T12:05:30.177Z,79.40
2022-09-17T12:08:05.987Z,79.70
2022-09-17T12:10:40.072Z,78.30
2022-09-17T12:13:20.007Z,76.20
2022-09-17T12:15:53.429Z,74.60
2022-09-17T12:18:35.726Z,74.70
2022-09-17T12:21:06.477Z,74.80
2022-09-17T12:23:39.937Z,73.80
2022-09-17T12:29:28.256Z,72.60
2022-09-17T12:32:22.496Z,71.30
2022-09-17T12:35:22.173Z,72.40
2022-09-17T12:38:01.432Z,74.40
2022-09-17T12:40:36.648Z,74.90
2022-09-17T12:43:21.216Z,73.60
2022-09-17T12:46:07.290Z,72.00
2022-09-17T12:49:10.947Z,71.90
2022-09-17T12:51:56.191Z,71.40
2022-09-17T12:54:57.970Z,66.40
2022-09-17T12:57:37.421Z,67.00
2022-09-17T13:00:11.385Z,65.50
2022-09-17T13:02:47.694Z,64.90
2022-09-17T13:05:42.302Z,63.80
2022-09-17T13:08:27.527Z,62.70
2022-09-17T13:11:18.134Z,62.10
2022-09-17T13:13:54.133Z,60.70
2022-09-17T13:16:27.187Z,61.50
2022-09-17T13:19:15.987Z,61.00
2022-09-17T13:21:54.692Z,61.20
2022-09-17T13:24:25.786Z,61.00
2022-09-17T13:26:55.763Z,61.40
2022-09-17T13:30:04.503Z,62.00
2022-09-17T13:32:46.987Z,61.10
2022-09-17T13:35:58.530Z,59.90
2022-09-17T13:38:44.411Z,59.40
2022-09-17T13:41:25.361Z,59.10
2022-09-17T13:44:14.184Z,58.40
2022-09-17T13:46:45.325Z,57.70
2022-09-17T13:49:17.139Z,58.40
2022-09-17T13:51:57.960Z,56.80
2022-09-17T13:54:39.155Z,57.10
2022-09-17T13:57:16.188Z,57.80
2022-09-17T13:59:56.552Z,56.80
2022-09-17T14:02:39.893Z,55.60
2022-09-17T14:05:41.380Z,55.30
2022-09-17T14:08:31.321Z,56.10
2022-09-17T14:11:05.998Z,56.50
2022-09-17T14:13:44.872Z,56.00
2022-09-17T14:16:47.203Z,55.60
2022-09-17T14:19:38.103Z,54.80
2022-09-17T14:22:17.434Z,54.10
2022-09-17T14:24:53.016Z,54.40
2022-09-17T14:27:56.120Z,54.10
2022-09-17T14:30:27.635Z,53.90
2022-09-17T14:33:06.759Z,53.80
2022-09-17T14:35:37.994Z,54.00
2022-09-17T14:38:14.061Z,53.70
2022-09-17T14:40:47.404Z,53.60
2022-09-17T14:43:22.876Z,54.70
2022-09-17T14:45:54.381Z,54.00
2022-09-17T14:48:30.064Z,53.80
2022-09-17T14:51:24.893Z,53.00
2022-09-17T14:54:12.411Z,53.20
2022-09-17T14:56:57.642Z,52.70
2022-09-17T14:59:39.758Z,52.70
2022-09-17T15:02:29.559Z,52.50
2022-09-17T15:05:02.495Z,52.40
2022-09-17T15:07:31.697Z,52.40
2022-09-17T15:10:14.739Z,52.40
2022-09-17T15:12:45.893Z,52.60
2022-09-17T15:15:20.586Z,52.90
2022-09-17T15:17:50.198Z,52.60
2022-09-17T15:20:21.982Z,52.40
2022-09-17T15:22:57.014Z,53.40
2022-09-17T15:25:27.122Z,53.00
2022-09-17T15:27:59.866Z,53.00
2022-09-17T15:30:29.153Z,53.30
2022-09-17T15:33:00.068Z,53.60
2022-09-17T15:35:30.627Z,53.70
2022-09-17T15:40:51.164Z,54.40
2022-09-17T15:43:27.055Z,54.10
2022-09-17T15:45:55.692Z,54.30
2022-09-17T15:48:36.271Z,54.30
2022-09-17T15:51:07.341Z,54.20
2022-09-17T15:53:36.737Z,54.10
2022-09-17T15:56:07.868Z,54.10
2022-09-17T15:58:54.906Z,54.10
2022-09-17T16:01:53.008Z,54.20
2022-09-17T16:04:24.445Z,54.70
2022-09-17T16:07:18.135Z,55.00
2022-09-17T16:09:50.046Z,55.40
2022-09-17T16:12:22.471Z,55.50
2022-09-17T16:14:54.327Z,55.70
2022-09-17T16:17:29.419Z,56.00
2022-09-17T16:20:02.506Z,56.40
2022-09-17T16:22:33.776Z,56.80
2022-09-17T16:25:02.947Z,56.90
2022-09-17T16:27:36.473Z,57.10
2022-09-17T16:30:10.315Z,57.20
2022-09-17T16:32:39.596Z,57.90
2022-09-17T16:35:09.018Z,58.20
2022-09-17T16:37:37.409Z,58.10
2022-09-17T16:40:07.262Z,58.90
2022-09-17T16:42:35.784Z,59.00
2022-09-17T16:45:06.851Z,59.90
2022-09-17T16:47:51.966Z,61.20
2022-09-17T16:50:20.698Z,61.60
2022-09-17T16:52:49.174Z,62.10
2022-09-17T16:55:19.034Z,62.90
2022-09-17T16:57:47.733Z,63.30
2022-09-17T17:00:20.066Z,63.60
2022-09-17T17:02:53.707Z,63.80
2022-09-17T17:05:22.255Z,64.10
2022-09-17T17:07:50.809Z,64.50
2022-09-17T17:10:20.384Z,65.00
2022-09-17T17:12:49.324Z,65.50
2022-09-17T17:15:19.351Z,65.90
2022-09-17T17:17:47.783Z,66.20
2022-09-17T17:20:17.056Z,66.20
2022-09-17T17:22:45.659Z,66.50
2022-09-17T17:25:15.523Z,66.90
2022-09-17T17:27:44.582Z,67.20
2022-09-17T17:30:17.648Z,67.20
2022-09-17T17:32:52.614Z,67.30
2022-09-17T17:35:21.473Z,67.60
2022-09-17T17:37:50.619Z,67.80
2022-09-17T17:40:19.193Z,67.80
2022-09-17T17:42:52.389Z,67.20
2022-09-17T17:45:20.830Z,66.90
2022-09-17T17:47:50.582Z,66.70
2022-09-17T17:50:19.759Z,66.70
2022-09-17T17:52:49.180Z,67.20
2022-09-17T17:55:18.163Z,67.30
2022-09-17T17:57:46.462Z,67.50
2022-09-17T18:00:16.937Z,68.30
2022-09-17T18:02:45.507Z,69.00
2022-09-17T18:05:15.395Z,69.70
2022-09-17T18:07:44.127Z,70.00
2022-09-17T18:10:13.178Z,70.40
2022-09-17T18:12:41.777Z,70.70
2022-09-17T18:15:10.758Z,70.50
2022-09-17T18:17:39.116Z,70.60
2022-09-17T18:20:09.748Z,70.90
2022-09-17T18:22:39.590Z,71.10
2022-09-17T18:25:08.720Z,71.50
2022-09-17T18:27:37.054Z,71.70
2022-09-17T18:30:06.288Z,72.00
2022-09-17T18:32:34.509Z,72.20
2022-09-17T18:35:02.818Z,72.60
2022-09-17T18:37:31.193Z,73.00
2022-09-17T18:40:01.190Z,73.40
2022-09-17T18:42:29.609Z,73.20
2022-09-17T18:44:57.897Z,73.20
2022-09-17T18:47:26.169Z,73.20
2022-09-17T18:49:54.441Z,73.60
2022-09-17T18:52:22.784Z,73.70
2022-09-17T18:54:51.034Z,73.70
2022-09-17T18:57:20.739Z,73.60
2022-09-17T18:59:49.073Z,73.20
2022-09-17T19:02:17.482Z,73.40
2022-09-17T19:04:45.973Z,73.20
2022-09-17T19:07:14.260Z,73.00
2022-09-17T19:09:42.597Z,72.80
2022-09-17T19:12:11.349Z,73.00
2022-09-17T19:14:41.056Z,73.00
2022-09-17T19:17:09.369Z,73.90
2022-09-17T19:19:37.851Z,73.10
2022-09-17T19:22:08.175Z,73.50
2022-09-17T19:24:36.607Z,73.30
2022-09-17T19:27:04.987Z,73.40
2022-09-17T19:29:33.315Z,73.50
2022-09-17T19:32:03.372Z,73.80
2022-09-17T19:34:31.689Z,73.90
2022-09-17T19:37:00.230Z,74.20
2022-09-17T19:39:28.548Z,74.50
2022-09-17T19:41:58.068Z,74.30
2022-09-17T19:44:26.428Z,74.20
2022-09-17T19:46:54.827Z,74.20
2022-09-17T19:49:24.698Z,74.20
2022-09-17T19:51:53.142Z,74.30
2022-09-17T19:54:21.493Z,74.20
2022-09-17T19:56:49.778Z,74.30
2022-09-17T19:59:18.078Z,74.90
2022-09-17T20:01:49.677Z,75.30
2022-09-17T20:04:18.695Z,75.40
2022-09-17T20:06:48.435Z,75.40
2022-09-17T20:09:16.762Z,75.20
2022-09-17T20:11:45.161Z,75.10
2022-09-17T20:14:13.802Z,75.20
2022-09-17T20:16:43.676Z,75.30
2022-09-17T20:19:16.021Z,75.60
2022-09-17T20:21:44.466Z,75.60
2022-09-17T20:24:14.817Z,75.70
2022-09-17T20:26:43.321Z,75.60
2022-09-17T20:29:12.007Z,75.60
2022-09-17T20:31:40.426Z,75.40
2022-09-17T20:34:08.779Z,75.30
2022-09-17T20:36:37.323Z,75.40
2022-09-17T20:39:21.014Z,75.40
2022-09-17T20:41:52.269Z,75.00
2022-09-17T20:44:20.830Z,75.00
2022-09-17T20:46:49.215Z,74.90
2022-09-17T20:49:17.511Z,74.90
2022-09-17T20:51:46.007Z,75.00
2022-09-17T20:54:14.612Z,75.20
2022-09-17T20:56:43.062Z,75.30
2022-09-17T20:59:18.006Z,75.40
2022-09-17T21:01:49.689Z,75.40
2022-09-17T21:04:20.156Z,75.30
2022-09-17T21:06:51.903Z,75.30
2022-09-17T21:09:20.210Z,75.40
2022-09-17T21:11:50.139Z,76.30
2022-09-17T21:14:20.724Z,75.40
2022-09-17T21:16:49.103Z,75.00
2022-09-17T21:19:17.771Z,74.80
2022-09-17T21:21:46.327Z,75.60
2022-09-17T21:24:14.640Z,76.00
2022-09-17T21:26:45.097Z,76.40
2022-09-17T21:29:13.411Z,76.50
2022-09-17T21:31:43.357Z,77.10
2022-09-17T21:34:14.223Z,76.90
2022-09-17T21:36:44.537Z,76.60
2022-09-17T21:39:14.902Z,76.30
2022-09-17T21:41:43.661Z,76.80
2022-09-17T21:44:13.100Z,76.00
2022-09-17T21:46:44.042Z,75.80
2022-09-17T21:49:13.499Z,75.70
2022-09-17T21:51:43.568Z,76.00
2022-09-17T21:54:13.689Z,76.00
2022-09-17T21:56:42.139Z,76.20
2022-09-17T21:59:13.004Z,76.00
2022-09-17T22:01:46.425Z,76.10
2022-09-17T22:04:18.121Z,76.60
2022-09-17T22:06:47.415Z,77.00
2022-09-17T22:09:18.834Z,77.00
2022-09-17T22:11:47.909Z,76.70
2022-09-17T22:14:19.506Z,76.90
2022-09-17T22:16:52.998Z,77.80
2022-09-17T22:19:22.494Z,78.10
2022-09-17T22:21:52.959Z,78.30
2022-09-17T22:24:22.462Z,78.40
2022-09-17T22:26:56.872Z,78.30
2022-09-17T22:29:25.876Z,78.20
2022-09-17T22:31:55.621Z,78.20
2022-09-17T22:34:25.963Z,78.10
2022-09-17T22:36:54.241Z,77.90
2022-09-17T22:39:23.128Z,78.10
2022-09-17T22:41:51.693Z,78.10
2022-09-17T22:44:21.540Z,78.10
2022-09-17T22:46:51.715Z,78.20
2022-09-17T22:49:21.727Z,78.00
2022-09-17T22:51:50.463Z,78.10
2022-09-17T22:54:19.593Z,78.20
2022-09-17T22:56:48.983Z,78.30
2022-09-17T22:59:19.065Z,78.20
2022-09-17T23:01:47.657Z,78.20
2022-09-17T23:04:16.303Z,78.20
2022-09-17T23:06:46.164Z,78.20
2022-09-17T23:09:15.309Z,78.30
2022-09-17T23:11:43.866Z,78.50
2022-09-17T23:14:14.287Z,78.60
2022-09-17T23:16:44.876Z,78.80
2022-09-17T23:19:13.927Z,78.80
2022-09-17T23:21:42.673Z,78.90
2022-09-17T23:24:17.697Z,79.10
2022-09-17T23:26:46.308Z,79.10
2022-09-17T23:29:15.383Z,79.30
2022-09-17T23:31:43.863Z,79.40
2022-09-17T23:34:12.155Z,79.30
2022-09-17T23:36:40.858Z,79.40
2022-09-17T23:39:12.665Z,79.20
2022-09-17T23:41:44.961Z,79.20
2022-09-17T23:44:16.275Z,79.30
2022-09-17T23:46:46.322Z,79.30
2022-09-17T23:49:16.344Z,79.30
2022-09-17T23:51:44.849Z,79.40
2022-09-17T23:54:14.663Z,79.50
2022-09-17T23:56:42.954Z,79.40
2022-09-17T23:59:12.266Z,79.50
